KVAD/VAD METAR and TAF weather

Enter ICAO airport designator
Station Type Date Time Source
KVAD METAR 2022/10/01 06:55 UTC NOAA

KVAD 010655Z AUTO 00000KT 10SM CLR 15/13 A2982 RMK AO2 SLP099 T01480132 $


Station Type Date Time Source
KVAD Decoded METAR 2022/10/01 06:55 UTC NOAA

Moody Air Force Base, GA, United States (KVAD) 30-58N 083-12W 71M
Oct 01, 2022 - 02:55 AM EDT / 2022.10.01 0655 UTC
Wind: Calm:0
Visibility: 10 mile(s):0
Sky conditions: clear
Temperature: 58.6 F (14.8 C)
Dew Point: 55.8 F (13.2 C)
Relative Humidity: 90%
Pressure (altimeter): 29.82 in. Hg (1009 hPa)
ob: KVAD 010655Z AUTO 00000KT 10SM CLR 15/13 A2982 RMK AO2 SLP099 T01480132
cycle: 7

Station Type Date Time Source
KVAD TAF 2022/09/28 22:33 UTC NOAA

TAF
AMD KVAD 282212Z 2822/2924 04010G20KT 9999 SCT070 BKN250 530003 QNH3000INS
TEMPO 2818/2924 04015G35KT TX24/2822Z TN16/2912Z LAST NO
AMDS AFT 2822 NEXT 3017

Example: see airport list